sensor_id;sensor_type;location;lat;lon;timestamp;temperature;humidity
12578;DHT22;6354;51.026;8.968;2023-02-12T00:01:07;6.20;99.90
12578;DHT22;6354;51.026;8.968;2023-02-12T00:03:36;6.20;99.90
12578;DHT22;6354;51.026;8.968;2023-02-12T00:06:06;6.20;99.90
12578;DHT22;6354;51.026;8.968;2023-02-12T00:08:34;6.20;99.90
12578;DHT22;6354;51.026;8.968;2023-02-12T00:11:07;6.30;99.90
12578;DHT22;6354;51.026;8.968;2023-02-12T00:13:36;6.30;99.90
12578;DHT22;6354;51.026;8.968;2023-02-12T00:16:05;6.30;99.90
12578;DHT22;6354;51.026;8.968;2023-02-12T00:18:34;6.30;99.90
12578;DHT22;6354;51.026;8.968;2023-02-12T00:21:04;6.30;99.90
12578;DHT22;6354;51.026;8.968;2023-02-12T00:23:35;6.30;99.90
12578;DHT22;6354;51.026;8.968;2023-02-12T00:26:05;6.30;99.90
12578;DHT22;6354;51.026;8.968;2023-02-12T00:28:33;6.30;99.90
12578;DHT22;6354;51.026;8.968;2023-02-12T00:31:06;6.30;99.90
12578;DHT22;6354;51.026;8.968;2023-02-12T00:33:34;6.30;99.90
12578;DHT22;6354;51.026;8.968;2023-02-12T00:36:04;6.30;99.90
12578;DHT22;6354;51.026;8.968;2023-02-12T00:38:33;6.30;99.90
12578;DHT22;6354;51.026;8.968;2023-02-12T00:41:01;6.20;99.90
12578;DHT22;6354;51.026;8.968;2023-02-12T00:43:29;6.20;99.90
12578;DHT22;6354;51.026;8.968;2023-02-12T00:45:57;6.20;99.90
12578;DHT22;6354;51.026;8.968;2023-02-12T00:48:25;6.20;99.90
12578;DHT22;6354;51.026;8.968;2023-02-12T00:50:54;6.20;99.90
12578;DHT22;6354;51.026;8.968;2023-02-12T00:53:23;6.20;99.90
12578;DHT22;6354;51.026;8.968;2023-02-12T00:55:51;6.30;99.90
12578;DHT22;6354;51.026;8.968;2023-02-12T00:58:20;6.30;99.90
12578;DHT22;6354;51.026;8.968;2023-02-12T01:00:48;6.30;99.90
12578;DHT22;6354;51.026;8.968;2023-02-12T01:03:16;6.30;99.90
12578;DHT22;6354;51.026;8.968;2023-02-12T01:05:44;6.30;99.90
12578;DHT22;6354;51.026;8.968;2023-02-12T01:08:14;6.20;99.90
12578;DHT22;6354;51.026;8.968;2023-02-12T01:10:43;6.20;99.90
12578;DHT22;6354;51.026;8.968;2023-02-12T01:13:13;6.20;99.90
12578;DHT22;6354;51.026;8.968;2023-02-12T01:15:41;6.20;99.90
12578;DHT22;6354;51.026;8.968;2023-02-12T01:18:10;6.30;99.90
12578;DHT22;6354;51.026;8.968;2023-02-12T01:20:38;6.20;99.90
12578;DHT22;6354;51.026;8.968;2023-02-12T01:23:06;6.30;99.90
12578;DHT22;6354;51.026;8.968;2023-02-12T01:25:34;6.30;99.90
12578;DHT22;6354;51.026;8.968;2023-02-12T01:28:05;6.30;99.90
12578;DHT22;6354;51.026;8.968;2023-02-12T01:30:34;6.30;99.90
12578;DHT22;6354;51.026;8.968;2023-02-12T01:33:02;6.30;99.90
12578;DHT22;6354;51.026;8.968;2023-02-12T01:35:30;6.30;99.90
12578;DHT22;6354;51.026;8.968;2023-02-12T01:37:58;6.30;99.90
12578;DHT22;6354;51.026;8.968;2023-02-12T01:40:26;6.30;99.90
12578;DHT22;6354;51.026;8.968;2023-02-12T01:42:54;6.30;99.90
12578;DHT22;6354;51.026;8.968;2023-02-12T01:45:42;6.30;99.90
12578;DHT22;6354;51.026;8.968;2023-02-12T01:48:12;6.30;99.90
12578;DHT22;6354;51.026;8.968;2023-02-12T01:50:42;6.30;99.90
12578;DHT22;6354;51.026;8.968;2023-02-12T01:53:11;6.20;99.90
12578;DHT22;6354;51.026;8.968;2023-02-12T01:55:51;6.10;99.90
12578;DHT22;6354;51.026;8.968;2023-02-12T01:58:22;6.20;99.90
12578;DHT22;6354;51.026;8.968;2023-02-12T02:00:53;6.20;99.90
12578;DHT22;6354;51.026;8.968;2023-02-12T02:03:21;6.20;99.90
12578;DHT22;6354;51.026;8.968;2023-02-12T02:05:54;6.20;99.90
12578;DHT22;6354;51.026;8.968;2023-02-12T02:08:23;6.20;99.90
12578;DHT22;6354;51.026;8.968;2023-02-12T02:10:52;6.20;99.90
12578;DHT22;6354;51.026;8.968;2023-02-12T02:13:20;6.20;99.90
12578;DHT22;6354;51.026;8.968;2023-02-12T02:16:13;6.20;99.90
12578;DHT22;6354;51.026;8.968;2023-02-12T02:18:49;6.20;99.90
12578;DHT22;6354;51.026;8.968;2023-02-12T02:21:40;6.20;99.90
12578;DHT22;6354;51.026;8.968;2023-02-12T02:24:33;6.20;99.90
12578;DHT22;6354;51.026;8.968;2023-02-12T02:27:14;6.10;99.90
12578;DHT22;6354;51.026;8.968;2023-02-12T02:30:20;6.20;99.90
12578;DHT22;6354;51.026;8.968;2023-02-12T02:32:54;6.20;99.90
12578;DHT22;6354;51.026;8.968;2023-02-12T02:35:27;6.20;99.90
12578;DHT22;6354;51.026;8.968;2023-02-12T02:38:06;6.20;99.90
12578;DHT22;6354;51.026;8.968;2023-02-12T02:40:42;6.20;99.90
12578;DHT22;6354;51.026;8.968;2023-02-12T02:43:16;6.20;99.90
12578;DHT22;6354;51.026;8.968;2023-02-12T02:45:48;6.20;99.90
12578;DHT22;6354;51.026;8.968;2023-02-12T02:48:22;6.10;99.90
12578;DHT22;6354;51.026;8.968;2023-02-12T02:50:53;6.20;99.90
12578;DHT22;6354;51.026;8.968;2023-02-12T02:53:26;6.20;99.90
12578;DHT22;6354;51.026;8.968;2023-02-12T02:56:00;6.10;99.90
12578;DHT22;6354;51.026;8.968;2023-02-12T02:58:31;6.20;99.90
12578;DHT22;6354;51.026;8.968;2023-02-12T03:01:06;6.20;99.90
12578;DHT22;6354;51.026;8.968;2023-02-12T03:03:38;6.20;99.90
12578;DHT22;6354;51.026;8.968;2023-02-12T03:06:14;6.20;99.90
12578;DHT22;6354;51.026;8.968;2023-02-12T03:08:48;6.30;99.90
12578;DHT22;6354;51.026;8.968;2023-02-12T03:11:25;6.20;99.90
12578;DHT22;6354;51.026;8.968;2023-02-12T03:13:58;6.20;99.90
12578;DHT22;6354;51.026;8.968;2023-02-12T03:16:31;6.30;99.90
12578;DHT22;6354;51.026;8.968;2023-02-12T03:19:04;6.30;99.90
12578;DHT22;6354;51.026;8.968;2023-02-12T03:21:38;6.30;99.90
12578;DHT22;6354;51.026;8.968;2023-02-12T03:24:12;6.30;99.90
12578;DHT22;6354;51.026;8.968;2023-02-12T03:26:46;6.30;99.90
12578;DHT22;6354;51.026;8.968;2023-02-12T03:29:16;6.20;99.90
12578;DHT22;6354;51.026;8.968;2023-02-12T03:31:58;6.20;99.90
12578;DHT22;6354;51.026;8.968;2023-02-12T03:34:40;6.30;99.90
12578;DHT22;6354;51.026;8.968;2023-02-12T03:37:18;6.20;99.90
12578;DHT22;6354;51.026;8.968;2023-02-12T03:39:55;6.10;99.90
12578;DHT22;6354;51.026;8.968;2023-02-12T03:42:33;6.20;99.90
12578;DHT22;6354;51.026;8.968;2023-02-12T03:45:06;6.20;99.90
12578;DHT22;6354;51.026;8.968;2023-02-12T03:47:44;6.20;99.90
12578;DHT22;6354;51.026;8.968;2023-02-12T03:50:16;6.20;99.90
12578;DHT22;6354;51.026;8.968;2023-02-12T03:52:45;6.30;99.90
12578;DHT22;6354;51.026;8.968;2023-02-12T03:55:14;6.30;99.90
12578;DHT22;6354;51.026;8.968;2023-02-12T03:57:47;6.30;99.90
12578;DHT22;6354;51.026;8.968;2023-02-12T04:00:19;6.30;99.90
12578;DHT22;6354;51.026;8.968;2023-02-12T04:02:49;6.30;99.90
12578;DHT22;6354;51.026;8.968;2023-02-12T04:05:19;6.30;99.90
12578;DHT22;6354;51.026;8.968;2023-02-12T04:07:48;6.20;99.90
12578;DHT22;6354;51.026;8.968;2023-02-12T04:10:17;6.20;99.90
12578;DHT22;6354;51.026;8.968;2023-02-12T04:12:52;6.20;99.90
12578;DHT22;6354;51.026;8.968;2023-02-12T04:15:51;6.20;99.90
12578;DHT22;6354;51.026;8.968;2023-02-12T04:18:26;6.30;99.90
12578;DHT22;6354;51.026;8.968;2023-02-12T04:21:03;6.20;99.90
12578;DHT22;6354;51.026;8.968;2023-02-12T04:23:44;6.30;99.90
12578;DHT22;6354;51.026;8.968;2023-02-12T04:26:23;6.30;99.90
12578;DHT22;6354;51.026;8.968;2023-02-12T04:29:01;6.40;99.90
12578;DHT22;6354;51.026;8.968;2023-02-12T04:31:37;6.30;99.90
12578;DHT22;6354;51.026;8.968;2023-02-12T04:34:12;6.30;99.90
12578;DHT22;6354;51.026;8.968;2023-02-12T04:36:45;6.30;99.90
12578;DHT22;6354;51.026;8.968;2023-02-12T04:39:19;6.40;99.90
12578;DHT22;6354;51.026;8.968;2023-02-12T04:41:48;6.40;99.90
12578;DHT22;6354;51.026;8.968;2023-02-12T04:44:19;6.30;99.90
12578;DHT22;6354;51.026;8.968;2023-02-12T04:46:49;6.30;99.90
12578;DHT22;6354;51.026;8.968;2023-02-12T04:49:20;6.30;99.90
12578;DHT22;6354;51.026;8.968;2023-02-12T04:51:49;6.30;99.90
12578;DHT22;6354;51.026;8.968;2023-02-12T04:54:19;6.20;99.90
12578;DHT22;6354;51.026;8.968;2023-02-12T04:56:47;6.20;99.90
12578;DHT22;6354;51.026;8.968;2023-02-12T04:59:16;6.10;99.90
12578;DHT22;6354;51.026;8.968;2023-02-12T05:01:44;6.10;99.90
12578;DHT22;6354;51.026;8.968;2023-02-12T05:04:14;6.10;99.90
12578;DHT22;6354;51.026;8.968;2023-02-12T05:06:44;6.10;99.90
12578;DHT22;6354;51.026;8.968;2023-02-12T05:09:15;6.10;99.90
12578;DHT22;6354;51.026;8.968;2023-02-12T05:11:43;6.10;99.90
12578;DHT22;6354;51.026;8.968;2023-02-12T05:14:11;6.10;99.90
12578;DHT22;6354;51.026;8.968;2023-02-12T05:16:40;6.10;99.90
12578;DHT22;6354;51.026;8.968;2023-02-12T05:19:08;6.10;99.90
12578;DHT22;6354;51.026;8.968;2023-02-12T05:21:37;6.10;99.90
12578;DHT22;6354;51.026;8.968;2023-02-12T05:24:07;6.20;99.90
12578;DHT22;6354;51.026;8.968;2023-02-12T05:26:35;6.20;99.90
12578;DHT22;6354;51.026;8.968;2023-02-12T05:29:03;6.20;99.90
12578;DHT22;6354;51.026;8.968;2023-02-12T05:31:31;6.10;99.90
12578;DHT22;6354;51.026;8.968;2023-02-12T05:34:00;6.10;99.90
12578;DHT22;6354;51.026;8.968;2023-02-12T05:36:28;6.10;99.90
12578;DHT22;6354;51.026;8.968;2023-02-12T05:38:57;6.10;99.90
12578;DHT22;6354;51.026;8.968;2023-02-12T05:41:27;6.10;99.90
12578;DHT22;6354;51.026;8.968;2023-02-12T05:44:00;6.10;99.90
12578;DHT22;6354;51.026;8.968;2023-02-12T05:46:29;6.10;99.90
12578;DHT22;6354;51.026;8.968;2023-02-12T05:48:57;6.10;99.90
12578;DHT22;6354;51.026;8.968;2023-02-12T05:51:26;6.10;99.90
12578;DHT22;6354;51.026;8.968;2023-02-12T05:53:56;6.10;99.90
12578;DHT22;6354;51.026;8.968;2023-02-12T05:56:28;6.10;99.90
12578;DHT22;6354;51.026;8.968;2023-02-12T05:58:59;6.10;99.90
12578;DHT22;6354;51.026;8.968;2023-02-12T06:01:29;6.10;99.90
12578;DHT22;6354;51.026;8.968;2023-02-12T06:03:58;6.10;99.90
12578;DHT22;6354;51.026;8.968;2023-02-12T06:06:27;6.10;99.90
12578;DHT22;6354;51.026;8.968;2023-02-12T06:08:56;6.10;99.90
12578;DHT22;6354;51.026;8.968;2023-02-12T06:11:24;6.10;99.90
12578;DHT22;6354;51.026;8.968;2023-02-12T06:13:54;6.10;99.90
12578;DHT22;6354;51.026;8.968;2023-02-12T06:16:25;6.10;99.90
12578;DHT22;6354;51.026;8.968;2023-02-12T06:18:55;6.10;99.90
12578;DHT22;6354;51.026;8.968;2023-02-12T06:21:25;6.10;99.90
12578;DHT22;6354;51.026;8.968;2023-02-12T06:23:53;6.10;99.90
12578;DHT22;6354;51.026;8.968;2023-02-12T06:26:22;6.10;99.90
12578;DHT22;6354;51.026;8.968;2023-02-12T06:28:51;6.10;99.90
12578;DHT22;6354;51.026;8.968;2023-02-12T06:31:22;6.10;99.90
12578;DHT22;6354;51.026;8.968;2023-02-12T06:33:52;6.10;99.90
12578;DHT22;6354;51.026;8.968;2023-02-12T06:36:21;6.20;99.90
12578;DHT22;6354;51.026;8.968;2023-02-12T06:38:49;6.20;99.90
12578;DHT22;6354;51.026;8.968;2023-02-12T06:41:18;6.20;99.90
12578;DHT22;6354;51.026;8.968;2023-02-12T06:43:46;6.20;99.90
12578;DHT22;6354;51.026;8.968;2023-02-12T06:46:15;6.20;99.90
12578;DHT22;6354;51.026;8.968;2023-02-12T06:48:44;6.20;99.90
12578;DHT22;6354;51.026;8.968;2023-02-12T06:51:15;6.20;99.90
12578;DHT22;6354;51.026;8.968;2023-02-12T06:53:43;6.20;99.90
12578;DHT22;6354;51.026;8.968;2023-02-12T06:56:12;6.20;99.90
12578;DHT22;6354;51.026;8.968;2023-02-12T06:58:44;6.20;99.90
12578;DHT22;6354;51.026;8.968;2023-02-12T07:01:14;6.30;99.90
12578;DHT22;6354;51.026;8.968;2023-02-12T07:03:48;6.30;99.90
12578;DHT22;6354;51.026;8.968;2023-02-12T07:06:16;6.30;99.90
12578;DHT22;6354;51.026;8.968;2023-02-12T07:08:45;6.30;99.90
12578;DHT22;6354;51.026;8.968;2023-02-12T07:11:14;6.30;99.90
12578;DHT22;6354;51.026;8.968;2023-02-12T07:13:43;6.30;99.90
12578;DHT22;6354;51.026;8.968;2023-02-12T07:16:13;6.30;99.90
12578;DHT22;6354;51.026;8.968;2023-02-12T07:18:42;6.20;99.90
12578;DHT22;6354;51.026;8.968;2023-02-12T07:21:13;6.30;99.90
12578;DHT22;6354;51.026;8.968;2023-02-12T07:23:44;6.20;99.90
12578;DHT22;6354;51.026;8.968;2023-02-12T07:26:16;6.20;99.90
12578;DHT22;6354;51.026;8.968;2023-02-12T07:28:44;6.20;99.90
12578;DHT22;6354;51.026;8.968;2023-02-12T07:31:14;6.20;99.90
12578;DHT22;6354;51.026;8.968;2023-02-12T07:33:42;6.10;99.90
12578;DHT22;6354;51.026;8.968;2023-02-12T07:36:14;6.10;99.90
12578;DHT22;6354;51.026;8.968;2023-02-12T07:38:43;6.20;99.90
12578;DHT22;6354;51.026;8.968;2023-02-12T07:41:13;6.20;99.90
12578;DHT22;6354;51.026;8.968;2023-02-12T07:43:42;6.30;99.90
12578;DHT22;6354;51.026;8.968;2023-02-12T07:46:11;6.30;99.90
12578;DHT22;6354;51.026;8.968;2023-02-12T07:48:40;6.30;99.90
12578;DHT22;6354;51.026;8.968;2023-02-12T07:51:10;6.30;99.90
12578;DHT22;6354;51.026;8.968;2023-02-12T07:53:40;6.30;99.90
12578;DHT22;6354;51.026;8.968;2023-02-12T07:56:10;6.30;99.90
12578;DHT22;6354;51.026;8.968;2023-02-12T07:58:39;6.40;99.90
12578;DHT22;6354;51.026;8.968;2023-02-12T08:01:12;6.30;99.90
12578;DHT22;6354;51.026;8.968;2023-02-12T08:03:41;6.40;99.90
12578;DHT22;6354;51.026;8.968;2023-02-12T08:06:10;6.50;99.90
12578;DHT22;6354;51.026;8.968;2023-02-12T08:08:40;6.50;99.90
12578;DHT22;6354;51.026;8.968;2023-02-12T08:11:10;6.60;99.90
12578;DHT22;6354;51.026;8.968;2023-02-12T08:13:38;6.60;99.90
12578;DHT22;6354;51.026;8.968;2023-02-12T08:16:09;6.70;99.90
12578;DHT22;6354;51.026;8.968;2023-02-12T08:18:37;6.70;99.90
12578;DHT22;6354;51.026;8.968;2023-02-12T08:21:07;6.80;99.90
12578;DHT22;6354;51.026;8.968;2023-02-12T08:23:36;6.90;99.90
12578;DHT22;6354;51.026;8.968;2023-02-12T08:26:08;6.90;99.90
12578;DHT22;6354;51.026;8.968;2023-02-12T08:28:38;6.90;99.90
12578;DHT22;6354;51.026;8.968;2023-02-12T08:31:11;6.90;99.90
12578;DHT22;6354;51.026;8.968;2023-02-12T08:33:40;6.90;99.90
12578;DHT22;6354;51.026;8.968;2023-02-12T08:36:10;7.00;99.90
12578;DHT22;6354;51.026;8.968;2023-02-12T08:38:41;7.00;99.90
12578;DHT22;6354;51.026;8.968;2023-02-12T08:41:12;7.00;99.90
12578;DHT22;6354;51.026;8.968;2023-02-12T08:43:42;7.00;99.90
12578;DHT22;6354;51.026;8.968;2023-02-12T08:46:11;7.00;99.90
12578;DHT22;6354;51.026;8.968;2023-02-12T08:48:41;7.10;99.90
12578;DHT22;6354;51.026;8.968;2023-02-12T08:51:12;7.10;99.90
12578;DHT22;6354;51.026;8.968;2023-02-12T08:53:42;7.20;99.90
12578;DHT22;6354;51.026;8.968;2023-02-12T08:56:13;7.20;99.90
12578;DHT22;6354;51.026;8.968;2023-02-12T08:58:42;7.20;99.90
12578;DHT22;6354;51.026;8.968;2023-02-12T09:01:12;7.30;99.90
12578;DHT22;6354;51.026;8.968;2023-02-12T09:03:43;7.50;99.90
12578;DHT22;6354;51.026;8.968;2023-02-12T09:06:11;7.60;99.90
12578;DHT22;6354;51.026;8.968;2023-02-12T09:08:39;7.80;99.90
12578;DHT22;6354;51.026;8.968;2023-02-12T09:11:09;7.60;99.90
12578;DHT22;6354;51.026;8.968;2023-02-12T09:13:39;7.70;99.90
12578;DHT22;6354;51.026;8.968;2023-02-12T09:16:08;7.70;99.90
12578;DHT22;6354;51.026;8.968;2023-02-12T09:18:36;7.80;99.90
12578;DHT22;6354;51.026;8.968;2023-02-12T09:21:06;7.90;99.90
12578;DHT22;6354;51.026;8.968;2023-02-12T09:23:36;7.90;99.90
12578;DHT22;6354;51.026;8.968;2023-02-12T09:26:05;8.00;99.90
12578;DHT22;6354;51.026;8.968;2023-02-12T09:28:34;8.00;99.90
12578;DHT22;6354;51.026;8.968;2023-02-12T09:31:06;8.00;99.90
12578;DHT22;6354;51.026;8.968;2023-02-12T09:33:35;8.00;99.90
12578;DHT22;6354;51.026;8.968;2023-02-12T09:36:04;7.90;99.90
12578;DHT22;6354;51.026;8.968;2023-02-12T09:38:33;7.90;99.90
12578;DHT22;6354;51.026;8.968;2023-02-12T09:41:18;8.00;99.90
12578;DHT22;6354;51.026;8.968;2023-02-12T09:43:54;8.00;99.90
12578;DHT22;6354;51.026;8.968;2023-02-12T09:46:29;8.10;99.90
12578;DHT22;6354;51.026;8.968;2023-02-12T09:49:07;8.20;99.90
12578;DHT22;6354;51.026;8.968;2023-02-12T09:51:37;8.40;99.90
12578;DHT22;6354;51.026;8.968;2023-02-12T09:54:11;8.50;99.90
12578;DHT22;6354;51.026;8.968;2023-02-12T09:56:43;8.60;99.90
12578;DHT22;6354;51.026;8.968;2023-02-12T09:59:28;8.60;99.90
12578;DHT22;6354;51.026;8.968;2023-02-12T10:02:00;8.70;99.90
12578;DHT22;6354;51.026;8.968;2023-02-12T10:04:28;8.70;99.90
12578;DHT22;6354;51.026;8.968;2023-02-12T10:07:02;8.90;99.90
12578;DHT22;6354;51.026;8.968;2023-02-12T10:09:44;9.00;99.90
12578;DHT22;6354;51.026;8.968;2023-02-12T10:12:19;9.10;99.90
12578;DHT22;6354;51.026;8.968;2023-02-12T10:14:58;9.20;99.90
12578;DHT22;6354;51.026;8.968;2023-02-12T10:17:37;9.20;99.90
12578;DHT22;6354;51.026;8.968;2023-02-12T10:26:18;9.20;99.90
12578;DHT22;6354;51.026;8.968;2023-02-12T10:28:48;9.20;99.90
12578;DHT22;6354;51.026;8.968;2023-02-12T10:31:24;9.30;99.90
12578;DHT22;6354;51.026;8.968;2023-02-12T10:33:57;9.50;99.90
12578;DHT22;6354;51.026;8.968;2023-02-12T10:36:34;9.50;99.90
12578;DHT22;6354;51.026;8.968;2023-02-12T10:39:11;9.50;99.90
12578;DHT22;6354;51.026;8.968;2023-02-12T10:41:43;9.50;99.90
12578;DHT22;6354;51.026;8.968;2023-02-12T10:44:12;9.60;99.90
12578;DHT22;6354;51.026;8.968;2023-02-12T10:46:40;9.60;99.90
12578;DHT22;6354;51.026;8.968;2023-02-12T10:49:14;9.50;99.90
12578;DHT22;6354;51.026;8.968;2023-02-12T10:52:02;9.40;99.90
12578;DHT22;6354;51.026;8.968;2023-02-12T10:54:34;9.40;99.90
12578;DHT22;6354;51.026;8.968;2023-02-12T10:57:10;9.40;99.90
12578;DHT22;6354;51.026;8.968;2023-02-12T10:59:40;9.40;99.90
12578;DHT22;6354;51.026;8.968;2023-02-12T11:02:23;9.40;99.90
12578;DHT22;6354;51.026;8.968;2023-02-12T11:04:54;9.40;99.90
12578;DHT22;6354;51.026;8.968;2023-02-12T11:07:23;9.40;99.90
12578;DHT22;6354;51.026;8.968;2023-02-12T11:09:53;9.50;99.90
12578;DHT22;6354;51.026;8.968;2023-02-12T11:12:31;9.50;99.90
12578;DHT22;6354;51.026;8.968;2023-02-12T11:15:09;9.50;99.90
12578;DHT22;6354;51.026;8.968;2023-02-12T11:17:42;9.60;99.90
12578;DHT22;6354;51.026;8.968;2023-02-12T11:20:23;9.50;99.90
12578;DHT22;6354;51.026;8.968;2023-02-12T11:22:54;9.70;99.90
12578;DHT22;6354;51.026;8.968;2023-02-12T11:25:24;9.90;99.90
12578;DHT22;6354;51.026;8.968;2023-02-12T11:28:02;9.90;99.90
12578;DHT22;6354;51.026;8.968;2023-02-12T11:30:31;9.80;99.90
12578;DHT22;6354;51.026;8.968;2023-02-12T11:33:20;9.90;99.90
12578;DHT22;6354;51.026;8.968;2023-02-12T11:35:53;9.90;99.90
12578;DHT22;6354;51.026;8.968;2023-02-12T11:38:26;9.80;99.90
12578;DHT22;6354;51.026;8.968;2023-02-12T11:40:58;10.00;99.90
12578;DHT22;6354;51.026;8.968;2023-02-12T11:43:27;9.90;99.90
12578;DHT22;6354;51.026;8.968;2023-02-12T11:45:58;10.00;99.90
12578;DHT22;6354;51.026;8.968;2023-02-12T11:48:30;10.00;99.90
12578;DHT22;6354;51.026;8.968;2023-02-12T11:51:03;10.00;99.90
12578;DHT22;6354;51.026;8.968;2023-02-12T11:53:36;10.10;99.90
12578;DHT22;6354;51.026;8.968;2023-02-12T11:56:09;10.20;99.90
12578;DHT22;6354;51.026;8.968;2023-02-12T11:58:38;10.20;99.90
12578;DHT22;6354;51.026;8.968;2023-02-12T12:01:14;10.20;99.90
12578;DHT22;6354;51.026;8.968;2023-02-12T12:03:55;10.20;99.90
12578;DHT22;6354;51.026;8.968;2023-02-12T12:06:31;10.20;99.90
12578;DHT22;6354;51.026;8.968;2023-02-12T12:09:04;10.40;99.90
12578;DHT22;6354;51.026;8.968;2023-02-12T12:11:39;10.40;99.90
12578;DHT22;6354;51.026;8.968;2023-02-12T12:14:14;10.30;99.90
12578;DHT22;6354;51.026;8.968;2023-02-12T12:16:49;10.20;99.90
12578;DHT22;6354;51.026;8.968;2023-02-12T12:19:41;10.20;99.90
12578;DHT22;6354;51.026;8.968;2023-02-12T12:22:30;10.20;99.90
12578;DHT22;6354;51.026;8.968;2023-02-12T12:25:09;10.20;99.90
12578;DHT22;6354;51.026;8.968;2023-02-12T12:27:44;10.20;99.90
12578;DHT22;6354;51.026;8.968;2023-02-12T12:30:55;10.10;99.90
12578;DHT22;6354;51.026;8.968;2023-02-12T12:33:31;10.20;99.90
12578;DHT22;6354;51.026;8.968;2023-02-12T12:39:10;10.30;99.90
12578;DHT22;6354;51.026;8.968;2023-02-12T12:42:06;10.20;99.90
12578;DHT22;6354;51.026;8.968;2023-02-12T12:44:50;10.20;99.90
12578;DHT22;6354;51.026;8.968;2023-02-12T12:47:25;10.20;99.90
12578;DHT22;6354;51.026;8.968;2023-02-12T12:50:03;10.20;99.90
12578;DHT22;6354;51.026;8.968;2023-02-12T12:53:11;10.10;99.90
12578;DHT22;6354;51.026;8.968;2023-02-12T12:55:59;10.10;99.90
12578;DHT22;6354;51.026;8.968;2023-02-12T12:58:37;10.10;99.90
12578;DHT22;6354;51.026;8.968;2023-02-12T13:01:24;10.10;99.90
12578;DHT22;6354;51.026;8.968;2023-02-12T13:07:11;10.20;99.90
12578;DHT22;6354;51.026;8.968;2023-02-12T13:09:50;10.20;99.90
12578;DHT22;6354;51.026;8.968;2023-02-12T13:12:35;10.30;99.90
12578;DHT22;6354;51.026;8.968;2023-02-12T13:15:18;10.30;99.90
12578;DHT22;6354;51.026;8.968;2023-02-12T13:17:52;10.20;99.90
12578;DHT22;6354;51.026;8.968;2023-02-12T13:20:30;10.30;99.90
12578;DHT22;6354;51.026;8.968;2023-02-12T13:23:06;10.30;99.90
12578;DHT22;6354;51.026;8.968;2023-02-12T13:25:41;10.30;99.90
12578;DHT22;6354;51.026;8.968;2023-02-12T13:28:23;10.30;99.90
12578;DHT22;6354;51.026;8.968;2023-02-12T13:30:54;10.30;99.90
12578;DHT22;6354;51.026;8.968;2023-02-12T13:33:26;10.20;99.90
12578;DHT22;6354;51.026;8.968;2023-02-12T13:35:59;10.30;99.90
12578;DHT22;6354;51.026;8.968;2023-02-12T13:38:33;10.30;99.90
12578;DHT22;6354;51.026;8.968;2023-02-12T13:41:04;10.20;99.90
12578;DHT22;6354;51.026;8.968;2023-02-12T13:43:43;10.20;99.90
12578;DHT22;6354;51.026;8.968;2023-02-12T13:46:20;10.30;99.90
12578;DHT22;6354;51.026;8.968;2023-02-12T13:48:56;10.20;99.90
12578;DHT22;6354;51.026;8.968;2023-02-12T13:51:36;10.20;99.90
12578;DHT22;6354;51.026;8.968;2023-02-12T13:54:22;10.10;99.90
12578;DHT22;6354;51.026;8.968;2023-02-12T13:56:57;10.10;99.90
12578;DHT22;6354;51.026;8.968;2023-02-12T13:59:53;10.00;99.90
12578;DHT22;6354;51.026;8.968;2023-02-12T14:02:41;10.00;99.90
12578;DHT22;6354;51.026;8.968;2023-02-12T14:05:27;10.00;99.90
12578;DHT22;6354;51.026;8.968;2023-02-12T14:08:01;9.90;99.90
12578;DHT22;6354;51.026;8.968;2023-02-12T14:10:34;9.90;99.90
12578;DHT22;6354;51.026;8.968;2023-02-12T14:13:15;9.90;99.90
12578;DHT22;6354;51.026;8.968;2023-02-12T14:15:49;9.90;99.90
12578;DHT22;6354;51.026;8.968;2023-02-12T14:18:30;9.70;99.90
12578;DHT22;6354;51.026;8.968;2023-02-12T14:27:33;9.80;99.90
12578;DHT22;6354;51.026;8.968;2023-02-12T14:33:25;9.70;99.90
12578;DHT22;6354;51.026;8.968;2023-02-12T14:36:16;9.60;99.90
12578;DHT22;6354;51.026;8.968;2023-02-12T14:39:03;9.70;99.90
12578;DHT22;6354;51.026;8.968;2023-02-12T14:41:36;9.70;99.90
12578;DHT22;6354;51.026;8.968;2023-02-12T14:44:44;9.70;99.90
12578;DHT22;6354;51.026;8.968;2023-02-12T14:50:00;9.60;99.90
12578;DHT22;6354;51.026;8.968;2023-02-12T14:52:32;9.60;99.90
12578;DHT22;6354;51.026;8.968;2023-02-12T14:55:12;9.60;99.90
12578;DHT22;6354;51.026;8.968;2023-02-12T14:57:45;9.60;99.90
12578;DHT22;6354;51.026;8.968;2023-02-12T15:00:22;9.50;99.90
12578;DHT22;6354;51.026;8.968;2023-02-12T15:02:52;9.50;99.90
12578;DHT22;6354;51.026;8.968;2023-02-12T15:05:25;9.50;99.90
12578;DHT22;6354;51.026;8.968;2023-02-12T15:07:57;9.40;99.90
12578;DHT22;6354;51.026;8.968;2023-02-12T15:10:29;9.40;99.90
12578;DHT22;6354;51.026;8.968;2023-02-12T15:13:06;9.40;99.90
12578;DHT22;6354;51.026;8.968;2023-02-12T15:15:44;9.40;99.90
12578;DHT22;6354;51.026;8.968;2023-02-12T15:18:20;9.40;99.90
12578;DHT22;6354;51.026;8.968;2023-02-12T15:20:56;9.40;99.90
12578;DHT22;6354;51.026;8.968;2023-02-12T15:23:32;9.50;99.90
12578;DHT22;6354;51.026;8.968;2023-02-12T15:26:00;9.50;99.90
12578;DHT22;6354;51.026;8.968;2023-02-12T15:28:31;9.50;99.90
12578;DHT22;6354;51.026;8.968;2023-02-12T15:31:02;9.50;99.90
12578;DHT22;6354;51.026;8.968;2023-02-12T15:33:33;9.50;99.90
12578;DHT22;6354;51.026;8.968;2023-02-12T15:36:04;9.40;99.90
12578;DHT22;6354;51.026;8.968;2023-02-12T15:38:35;9.40;99.90
12578;DHT22;6354;51.026;8.968;2023-02-12T15:41:04;9.40;99.90
12578;DHT22;6354;51.026;8.968;2023-02-12T15:43:38;9.40;99.90
12578;DHT22;6354;51.026;8.968;2023-02-12T15:46:15;9.40;99.90
12578;DHT22;6354;51.026;8.968;2023-02-12T15:48:44;9.40;99.90
12578;DHT22;6354;51.026;8.968;2023-02-12T15:51:19;9.40;99.90
12578;DHT22;6354;51.026;8.968;2023-02-12T15:53:48;9.40;99.90
12578;DHT22;6354;51.026;8.968;2023-02-12T15:56:19;9.30;99.90
12578;DHT22;6354;51.026;8.968;2023-02-12T15:58:49;9.30;99.90
12578;DHT22;6354;51.026;8.968;2023-02-12T16:01:19;9.40;99.90
12578;DHT22;6354;51.026;8.968;2023-02-12T16:03:49;9.40;99.90
12578;DHT22;6354;51.026;8.968;2023-02-12T16:06:20;9.40;99.90
12578;DHT22;6354;51.026;8.968;2023-02-12T16:08:54;9.30;99.90
12578;DHT22;6354;51.026;8.968;2023-02-12T16:11:25;9.30;99.90
12578;DHT22;6354;51.026;8.968;2023-02-12T16:13:58;9.20;99.90
12578;DHT22;6354;51.026;8.968;2023-02-12T16:16:28;9.30;99.90
12578;DHT22;6354;51.026;8.968;2023-02-12T16:19:04;9.20;99.90
12578;DHT22;6354;51.026;8.968;2023-02-12T16:21:36;9.20;99.90
12578;DHT22;6354;51.026;8.968;2023-02-12T16:24:20;9.20;99.90
12578;DHT22;6354;51.026;8.968;2023-02-12T16:26:49;9.20;99.90
12578;DHT22;6354;51.026;8.968;2023-02-12T16:29:17;9.20;99.90
12578;DHT22;6354;51.026;8.968;2023-02-12T16:31:54;9.10;99.90
12578;DHT22;6354;51.026;8.968;2023-02-12T16:34:31;9.10;99.90
12578;DHT22;6354;51.026;8.968;2023-02-12T16:37:02;9.10;99.90
12578;DHT22;6354;51.026;8.968;2023-02-12T16:42:31;9.10;99.90
12578;DHT22;6354;51.026;8.968;2023-02-12T16:45:00;9.10;99.90
12578;DHT22;6354;51.026;8.968;2023-02-12T16:47:28;9.10;99.90
12578;DHT22;6354;51.026;8.968;2023-02-12T16:49:58;9.10;99.90
12578;DHT22;6354;51.026;8.968;2023-02-12T16:52:34;9.10;99.90
12578;DHT22;6354;51.026;8.968;2023-02-12T16:55:08;9.10;99.90
12578;DHT22;6354;51.026;8.968;2023-02-12T16:57:38;9.00;99.90
12578;DHT22;6354;51.026;8.968;2023-02-12T17:00:08;9.00;99.90
12578;DHT22;6354;51.026;8.968;2023-02-12T17:02:38;9.00;99.90
12578;DHT22;6354;51.026;8.968;2023-02-12T17:05:07;9.00;99.90